sensor_id;sensor_type;location;lat;lon;timestamp;temperature;humidity
13744;DHT22;6943;52.368;9.966;2022-08-01T00:00:36;19.20;99.90
13744;DHT22;6943;52.368;9.966;2022-08-01T00:03:02;19.20;99.90
13744;DHT22;6943;52.368;9.966;2022-08-01T00:05:27;19.20;99.90
13744;DHT22;6943;52.368;9.966;2022-08-01T00:07:53;19.20;99.90
13744;DHT22;6943;52.368;9.966;2022-08-01T00:10:19;19.20;99.90
13744;DHT22;6943;52.368;9.966;2022-08-01T00:12:45;19.20;99.90
13744;DHT22;6943;52.368;9.966;2022-08-01T00:15:13;19.20;99.90
13744;DHT22;6943;52.368;9.966;2022-08-01T00:17:39;19.30;99.90
13744;DHT22;6943;52.368;9.966;2022-08-01T00:20:06;19.30;99.90
13744;DHT22;6943;52.368;9.966;2022-08-01T00:22:32;19.30;99.90
13744;DHT22;6943;52.368;9.966;2022-08-01T00:24:58;19.30;99.90
13744;DHT22;6943;52.368;9.966;2022-08-01T00:27:23;19.40;99.90
13744;DHT22;6943;52.368;9.966;2022-08-01T00:29:49;19.40;99.90
13744;DHT22;6943;52.368;9.966;2022-08-01T00:32:14;19.40;99.90
13744;DHT22;6943;52.368;9.966;2022-08-01T00:34:40;19.40;99.90
13744;DHT22;6943;52.368;9.966;2022-08-01T00:37:05;19.50;99.90
13744;DHT22;6943;52.368;9.966;2022-08-01T00:39:31;19.50;99.90
13744;DHT22;6943;52.368;9.966;2022-08-01T00:41:58;19.50;99.90
13744;DHT22;6943;52.368;9.966;2022-08-01T00:44:24;19.50;99.90
13744;DHT22;6943;52.368;9.966;2022-08-01T00:46:49;19.40;99.90
13744;DHT22;6943;52.368;9.966;2022-08-01T00:49:15;19.50;99.90
13744;DHT22;6943;52.368;9.966;2022-08-01T00:51:40;19.50;99.90
13744;DHT22;6943;52.368;9.966;2022-08-01T00:54:06;19.50;99.90
13744;DHT22;6943;52.368;9.966;2022-08-01T00:56:32;19.50;99.90
13744;DHT22;6943;52.368;9.966;2022-08-01T00:58:58;19.50;99.90
13744;DHT22;6943;52.368;9.966;2022-08-01T01:01:24;19.50;99.90
13744;DHT22;6943;52.368;9.966;2022-08-01T01:03:51;19.50;99.90
13744;DHT22;6943;52.368;9.966;2022-08-01T01:06:41;19.40;99.90
13744;DHT22;6943;52.368;9.966;2022-08-01T01:09:36;19.50;99.90
13744;DHT22;6943;52.368;9.966;2022-08-01T01:17:58;19.40;99.90
13744;DHT22;6943;52.368;9.966;2022-08-01T01:20:32;19.40;99.90
13744;DHT22;6943;52.368;9.966;2022-08-01T01:31:08;19.40;99.90
13744;DHT22;6943;52.368;9.966;2022-08-01T01:33:37;19.40;99.90
13744;DHT22;6943;52.368;9.966;2022-08-01T01:36:08;19.30;99.90
13744;DHT22;6943;52.368;9.966;2022-08-01T01:38:37;19.40;99.90
13744;DHT22;6943;52.368;9.966;2022-08-01T01:41:07;19.30;99.90
13744;DHT22;6943;52.368;9.966;2022-08-01T01:43:34;19.30;99.90
13744;DHT22;6943;52.368;9.966;2022-08-01T01:46:00;19.30;99.90
13744;DHT22;6943;52.368;9.966;2022-08-01T01:48:28;19.30;99.90
13744;DHT22;6943;52.368;9.966;2022-08-01T01:50:54;19.30;99.90
13744;DHT22;6943;52.368;9.966;2022-08-01T01:53:22;19.30;99.90
13744;DHT22;6943;52.368;9.966;2022-08-01T01:55:51;19.30;99.90
13744;DHT22;6943;52.368;9.966;2022-08-01T01:58:18;19.30;99.90
13744;DHT22;6943;52.368;9.966;2022-08-01T02:00:45;19.30;99.90
13744;DHT22;6943;52.368;9.966;2022-08-01T02:03:12;19.30;99.90
13744;DHT22;6943;52.368;9.966;2022-08-01T02:05:38;19.30;99.90
13744;DHT22;6943;52.368;9.966;2022-08-01T02:08:05;19.30;99.90
13744;DHT22;6943;52.368;9.966;2022-08-01T02:10:32;19.30;99.90
13744;DHT22;6943;52.368;9.966;2022-08-01T02:13:02;19.30;99.90
13744;DHT22;6943;52.368;9.966;2022-08-01T02:15:30;19.30;99.90
13744;DHT22;6943;52.368;9.966;2022-08-01T02:17:56;19.30;99.90
13744;DHT22;6943;52.368;9.966;2022-08-01T02:20:24;19.30;99.90
13744;DHT22;6943;52.368;9.966;2022-08-01T02:23:07;19.20;99.90
13744;DHT22;6943;52.368;9.966;2022-08-01T02:25:53;19.20;99.90
13744;DHT22;6943;52.368;9.966;2022-08-01T02:28:25;19.10;99.90
13744;DHT22;6943;52.368;9.966;2022-08-01T02:30:56;19.10;99.90
13744;DHT22;6943;52.368;9.966;2022-08-01T02:33:33;19.10;99.90
13744;DHT22;6943;52.368;9.966;2022-08-01T02:36:01;19.00;99.90
13744;DHT22;6943;52.368;9.966;2022-08-01T02:38:32;19.00;99.90
13744;DHT22;6943;52.368;9.966;2022-08-01T02:41:07;19.00;99.90
13744;DHT22;6943;52.368;9.966;2022-08-01T02:43:37;19.00;99.90
13744;DHT22;6943;52.368;9.966;2022-08-01T02:46:04;19.00;99.90
13744;DHT22;6943;52.368;9.966;2022-08-01T02:48:34;18.90;99.90
13744;DHT22;6943;52.368;9.966;2022-08-01T02:51:01;19.00;99.90
13744;DHT22;6943;52.368;9.966;2022-08-01T02:53:31;18.90;99.90
13744;DHT22;6943;52.368;9.966;2022-08-01T02:55:58;18.90;99.90
13744;DHT22;6943;52.368;9.966;2022-08-01T02:58:25;18.90;99.90
13744;DHT22;6943;52.368;9.966;2022-08-01T03:00:51;18.80;99.90
13744;DHT22;6943;52.368;9.966;2022-08-01T03:03:17;18.80;99.90
13744;DHT22;6943;52.368;9.966;2022-08-01T03:05:44;18.90;99.90
13744;DHT22;6943;52.368;9.966;2022-08-01T03:08:11;18.80;99.90
13744;DHT22;6943;52.368;9.966;2022-08-01T03:10:40;18.80;99.90
13744;DHT22;6943;52.368;9.966;2022-08-01T03:13:07;18.80;99.90
13744;DHT22;6943;52.368;9.966;2022-08-01T03:15:37;18.80;99.90
13744;DHT22;6943;52.368;9.966;2022-08-01T03:18:06;18.80;99.90
13744;DHT22;6943;52.368;9.966;2022-08-01T03:20:33;18.80;99.90
13744;DHT22;6943;52.368;9.966;2022-08-01T03:23:03;18.80;99.90
13744;DHT22;6943;52.368;9.966;2022-08-01T03:25:29;18.80;99.90
13744;DHT22;6943;52.368;9.966;2022-08-01T03:27:59;18.80;99.90
13744;DHT22;6943;52.368;9.966;2022-08-01T03:30:27;18.80;99.90
13744;DHT22;6943;52.368;9.966;2022-08-01T03:32:53;18.80;99.90
13744;DHT22;6943;52.368;9.966;2022-08-01T03:35:19;18.80;99.90
13744;DHT22;6943;52.368;9.966;2022-08-01T03:37:50;18.70;99.90
13744;DHT22;6943;52.368;9.966;2022-08-01T03:40:33;18.70;99.90
13744;DHT22;6943;52.368;9.966;2022-08-01T03:43:05;18.70;99.90
13744;DHT22;6943;52.368;9.966;2022-08-01T03:45:36;18.70;99.90
13744;DHT22;6943;52.368;9.966;2022-08-01T03:48:09;18.60;99.90
13744;DHT22;6943;52.368;9.966;2022-08-01T03:50:37;18.70;99.90
13744;DHT22;6943;52.368;9.966;2022-08-01T03:53:06;18.70;99.90
13744;DHT22;6943;52.368;9.966;2022-08-01T03:55:33;18.70;99.90
13744;DHT22;6943;52.368;9.966;2022-08-01T03:58:00;18.70;99.90
13744;DHT22;6943;52.368;9.966;2022-08-01T04:00:27;18.70;99.90
13744;DHT22;6943;52.368;9.966;2022-08-01T04:02:53;18.70;99.90
13744;DHT22;6943;52.368;9.966;2022-08-01T04:05:19;18.70;99.90
13744;DHT22;6943;52.368;9.966;2022-08-01T04:07:49;18.70;99.90
13744;DHT22;6943;52.368;9.966;2022-08-01T04:10:24;18.60;99.90
13744;DHT22;6943;52.368;9.966;2022-08-01T04:12:50;18.70;99.90
13744;DHT22;6943;52.368;9.966;2022-08-01T04:15:16;18.70;99.90
13744;DHT22;6943;52.368;9.966;2022-08-01T04:17:42;18.80;99.90
13744;DHT22;6943;52.368;9.966;2022-08-01T04:20:08;18.80;99.90
13744;DHT22;6943;52.368;9.966;2022-08-01T04:22:33;18.80;99.90
13744;DHT22;6943;52.368;9.966;2022-08-01T04:25:01;18.80;99.90
13744;DHT22;6943;52.368;9.966;2022-08-01T04:27:36;18.70;99.90
13744;DHT22;6943;52.368;9.966;2022-08-01T04:30:03;18.80;99.90
13744;DHT22;6943;52.368;9.966;2022-08-01T04:32:33;18.80;99.90
13744;DHT22;6943;52.368;9.966;2022-08-01T04:35:00;18.80;99.90
13744;DHT22;6943;52.368;9.966;2022-08-01T04:37:28;18.80;99.90
13744;DHT22;6943;52.368;9.966;2022-08-01T04:39:55;18.90;99.90
13744;DHT22;6943;52.368;9.966;2022-08-01T04:42:21;18.90;99.90
13744;DHT22;6943;52.368;9.966;2022-08-01T04:44:47;19.00;99.90
13744;DHT22;6943;52.368;9.966;2022-08-01T04:47:13;19.00;99.90
13744;DHT22;6943;52.368;9.966;2022-08-01T04:49:39;19.00;99.90
13744;DHT22;6943;52.368;9.966;2022-08-01T04:52:05;19.00;99.90
13744;DHT22;6943;52.368;9.966;2022-08-01T04:54:33;19.00;99.90
13744;DHT22;6943;52.368;9.966;2022-08-01T04:56:59;19.00;99.90
13744;DHT22;6943;52.368;9.966;2022-08-01T04:59:33;19.00;99.90
13744;DHT22;6943;52.368;9.966;2022-08-01T05:02:07;19.10;99.90
13744;DHT22;6943;52.368;9.966;2022-08-01T05:04:34;19.30;99.90
13744;DHT22;6943;52.368;9.966;2022-08-01T05:07:00;19.40;99.90
13744;DHT22;6943;52.368;9.966;2022-08-01T05:09:26;19.40;99.90
13744;DHT22;6943;52.368;9.966;2022-08-01T05:11:52;19.40;99.90
13744;DHT22;6943;52.368;9.966;2022-08-01T05:14:17;19.50;99.90
13744;DHT22;6943;52.368;9.966;2022-08-01T05:16:42;19.60;99.90
13744;DHT22;6943;52.368;9.966;2022-08-01T05:19:08;19.80;99.90
13744;DHT22;6943;52.368;9.966;2022-08-01T05:21:34;20.00;99.90
13744;DHT22;6943;52.368;9.966;2022-08-01T05:24:00;20.20;99.90
13744;DHT22;6943;52.368;9.966;2022-08-01T05:26:28;20.20;99.90
13744;DHT22;6943;52.368;9.966;2022-08-01T05:28:53;20.10;99.90
13744;DHT22;6943;52.368;9.966;2022-08-01T05:31:19;20.20;99.90
13744;DHT22;6943;52.368;9.966;2022-08-01T05:33:44;20.20;99.90
13744;DHT22;6943;52.368;9.966;2022-08-01T05:36:10;20.20;99.90
13744;DHT22;6943;52.368;9.966;2022-08-01T05:38:35;20.10;99.90
13744;DHT22;6943;52.368;9.966;2022-08-01T05:41:01;20.10;99.90
13744;DHT22;6943;52.368;9.966;2022-08-01T05:43:26;20.00;99.90
13744;DHT22;6943;52.368;9.966;2022-08-01T05:45:52;19.90;99.90
13744;DHT22;6943;52.368;9.966;2022-08-01T05:48:17;19.90;99.90
13744;DHT22;6943;52.368;9.966;2022-08-01T05:50:43;19.90;99.90
13744;DHT22;6943;52.368;9.966;2022-08-01T05:53:11;19.90;99.90
13744;DHT22;6943;52.368;9.966;2022-08-01T05:55:36;19.90;99.90
13744;DHT22;6943;52.368;9.966;2022-08-01T05:58:02;20.00;99.90
13744;DHT22;6943;52.368;9.966;2022-08-01T06:00:28;20.00;99.90
13744;DHT22;6943;52.368;9.966;2022-08-01T06:02:53;19.90;99.90
13744;DHT22;6943;52.368;9.966;2022-08-01T06:05:19;20.00;99.90
13744;DHT22;6943;52.368;9.966;2022-08-01T06:07:44;20.00;99.90
13744;DHT22;6943;52.368;9.966;2022-08-01T06:10:10;20.10;99.90
13744;DHT22;6943;52.368;9.966;2022-08-01T06:12:36;20.10;99.90
13744;DHT22;6943;52.368;9.966;2022-08-01T06:15:05;20.20;99.90
13744;DHT22;6943;52.368;9.966;2022-08-01T06:17:31;20.10;99.90
13744;DHT22;6943;52.368;9.966;2022-08-01T06:19:56;20.00;99.90
13744;DHT22;6943;52.368;9.966;2022-08-01T06:22:22;19.90;99.90
13744;DHT22;6943;52.368;9.966;2022-08-01T06:24:47;19.70;99.90
13744;DHT22;6943;52.368;9.966;2022-08-01T06:27:13;19.70;99.90
13744;DHT22;6943;52.368;9.966;2022-08-01T06:29:38;19.70;99.90
13744;DHT22;6943;52.368;9.966;2022-08-01T06:32:04;19.60;99.90
13744;DHT22;6943;52.368;9.966;2022-08-01T06:34:29;19.50;99.90
13744;DHT22;6943;52.368;9.966;2022-08-01T06:36:55;19.40;99.90
13744;DHT22;6943;52.368;9.966;2022-08-01T06:39:20;19.40;99.90
13744;DHT22;6943;52.368;9.966;2022-08-01T06:41:46;19.40;99.90
13744;DHT22;6943;52.368;9.966;2022-08-01T06:44:12;19.50;99.90
13744;DHT22;6943;52.368;9.966;2022-08-01T06:46:38;19.60;99.90
13744;DHT22;6943;52.368;9.966;2022-08-01T06:49:04;19.70;99.90
13744;DHT22;6943;52.368;9.966;2022-08-01T06:51:29;19.80;99.90
13744;DHT22;6943;52.368;9.966;2022-08-01T06:53:55;19.80;99.90
13744;DHT22;6943;52.368;9.966;2022-08-01T06:56:20;19.90;99.90
13744;DHT22;6943;52.368;9.966;2022-08-01T06:58:46;20.30;99.90
13744;DHT22;6943;52.368;9.966;2022-08-01T07:01:12;21.10;99.90
13744;DHT22;6943;52.368;9.966;2022-08-01T07:03:37;22.30;99.90
13744;DHT22;6943;52.368;9.966;2022-08-01T07:06:03;24.10;99.90
13744;DHT22;6943;52.368;9.966;2022-08-01T07:08:29;24.90;99.90
13744;DHT22;6943;52.368;9.966;2022-08-01T07:10:54;25.90;24.70
13744;DHT22;6943;52.368;9.966;2022-08-01T07:13:21;26.60;1.00
13744;DHT22;6943;52.368;9.966;2022-08-01T07:15:50;29.20;1.00
13744;DHT22;6943;52.368;9.966;2022-08-01T07:18:16;32.10;1.00
13744;DHT22;6943;52.368;9.966;2022-08-01T07:20:42;32.00;1.00
13744;DHT22;6943;52.368;9.966;2022-08-01T07:23:08;33.30;1.00
13744;DHT22;6943;52.368;9.966;2022-08-01T07:25:33;36.00;1.00
13744;DHT22;6943;52.368;9.966;2022-08-01T07:27:59;36.40;1.00
13744;DHT22;6943;52.368;9.966;2022-08-01T07:30:24;37.00;1.00
13744;DHT22;6943;52.368;9.966;2022-08-01T07:32:53;35.40;1.00
13744;DHT22;6943;52.368;9.966;2022-08-01T07:35:19;35.50;1.00
13744;DHT22;6943;52.368;9.966;2022-08-01T07:37:44;33.60;1.00
13744;DHT22;6943;52.368;9.966;2022-08-01T07:40:10;32.40;1.00
13744;DHT22;6943;52.368;9.966;2022-08-01T07:42:39;32.90;1.00
13744;DHT22;6943;52.368;9.966;2022-08-01T07:45:09;33.90;1.00
13744;DHT22;6943;52.368;9.966;2022-08-01T07:47:34;34.50;1.00
13744;DHT22;6943;52.368;9.966;2022-08-01T07:50:01;36.40;1.00
13744;DHT22;6943;52.368;9.966;2022-08-01T07:52:27;36.30;1.00
13744;DHT22;6943;52.368;9.966;2022-08-01T07:54:53;34.20;1.00
13744;DHT22;6943;52.368;9.966;2022-08-01T07:57:18;32.00;1.00
13744;DHT22;6943;52.368;9.966;2022-08-01T07:59:44;29.90;1.00
13744;DHT22;6943;52.368;9.966;2022-08-01T08:02:09;27.90;1.00
13744;DHT22;6943;52.368;9.966;2022-08-01T08:04:35;26.70;1.00
13744;DHT22;6943;52.368;9.966;2022-08-01T08:07:01;25.60;1.00
13744;DHT22;6943;52.368;9.966;2022-08-01T08:09:26;25.00;1.00
13744;DHT22;6943;52.368;9.966;2022-08-01T08:11:51;24.40;1.00
13744;DHT22;6943;52.368;9.966;2022-08-01T08:14:17;24.00;1.00
13744;DHT22;6943;52.368;9.966;2022-08-01T08:16:43;23.50;20.80
13744;DHT22;6943;52.368;9.966;2022-08-01T08:19:09;23.00;41.50
13744;DHT22;6943;52.368;9.966;2022-08-01T08:21:35;22.80;62.40
13744;DHT22;6943;52.368;9.966;2022-08-01T08:24:01;22.70;79.30
13744;DHT22;6943;52.368;9.966;2022-08-01T08:26:53;22.70;88.30
13744;DHT22;6943;52.368;9.966;2022-08-01T08:29:19;22.90;80.50
13744;DHT22;6943;52.368;9.966;2022-08-01T08:31:45;23.40;67.30
13744;DHT22;6943;52.368;9.966;2022-08-01T08:34:11;24.00;38.50
13744;DHT22;6943;52.368;9.966;2022-08-01T08:36:38;24.40;25.80
13744;DHT22;6943;52.368;9.966;2022-08-01T08:39:03;24.50;16.80
13744;DHT22;6943;52.368;9.966;2022-08-01T08:41:30;24.90;9.60
13744;DHT22;6943;52.368;9.966;2022-08-01T08:43:56;24.80;6.00
13744;DHT22;6943;52.368;9.966;2022-08-01T08:46:23;25.30;6.00
13744;DHT22;6943;52.368;9.966;2022-08-01T08:48:49;26.20;1.00
13744;DHT22;6943;52.368;9.966;2022-08-01T08:51:17;26.80;1.00
13744;DHT22;6943;52.368;9.966;2022-08-01T08:53:46;27.10;1.00
13744;DHT22;6943;52.368;9.966;2022-08-01T08:56:13;27.10;1.00
13744;DHT22;6943;52.368;9.966;2022-08-01T08:58:40;26.90;1.00
13744;DHT22;6943;52.368;9.966;2022-08-01T09:01:08;27.00;1.00
13744;DHT22;6943;52.368;9.966;2022-08-01T09:03:34;26.90;1.00
13744;DHT22;6943;52.368;9.966;2022-08-01T09:06:00;26.70;1.00
13744;DHT22;6943;52.368;9.966;2022-08-01T09:08:25;26.30;1.00
13744;DHT22;6943;52.368;9.966;2022-08-01T09:10:51;25.40;1.00
13744;DHT22;6943;52.368;9.966;2022-08-01T09:13:16;25.60;1.00
13744;DHT22;6943;52.368;9.966;2022-08-01T09:15:47;25.60;1.00
13744;DHT22;6943;52.368;9.966;2022-08-01T09:18:35;25.40;1.00
13744;DHT22;6943;52.368;9.966;2022-08-01T09:21:17;24.20;1.00
13744;DHT22;6943;52.368;9.966;2022-08-01T09:23:49;23.70;2.80
13744;DHT22;6943;52.368;9.966;2022-08-01T09:26:19;23.60;5.70
13744;DHT22;6943;52.368;9.966;2022-08-01T09:28:46;23.80;9.50
13744;DHT22;6943;52.368;9.966;2022-08-01T09:31:14;23.80;10.00
13744;DHT22;6943;52.368;9.966;2022-08-01T09:33:53;23.90;10.00
13744;DHT22;6943;52.368;9.966;2022-08-01T09:36:21;24.20;6.90
13744;DHT22;6943;52.368;9.966;2022-08-01T09:38:48;24.20;4.30
13744;DHT22;6943;52.368;9.966;2022-08-01T09:41:14;24.30;1.10
13744;DHT22;6943;52.368;9.966;2022-08-01T09:43:47;24.20;1.00
13744;DHT22;6943;52.368;9.966;2022-08-01T09:46:13;23.90;2.60
13744;DHT22;6943;52.368;9.966;2022-08-01T09:48:42;23.70;7.00
13744;DHT22;6943;52.368;9.966;2022-08-01T09:51:28;23.50;11.00
13744;DHT22;6943;52.368;9.966;2022-08-01T09:53:54;23.20;11.00
13744;DHT22;6943;52.368;9.966;2022-08-01T09:56:21;23.10;15.50
13744;DHT22;6943;52.368;9.966;2022-08-01T09:58:54;23.30;15.90
13744;DHT22;6943;52.368;9.966;2022-08-01T10:01:21;23.80;5.80
13744;DHT22;6943;52.368;9.966;2022-08-01T10:03:47;24.60;1.00
13744;DHT22;6943;52.368;9.966;2022-08-01T10:06:28;25.00;1.00
13744;DHT22;6943;52.368;9.966;2022-08-01T10:08:53;25.20;1.00
13744;DHT22;6943;52.368;9.966;2022-08-01T10:11:19;24.90;1.00
13744;DHT22;6943;52.368;9.966;2022-08-01T10:13:46;24.80;1.00
13744;DHT22;6943;52.368;9.966;2022-08-01T10:16:12;24.80;1.00
13744;DHT22;6943;52.368;9.966;2022-08-01T10:18:41;25.20;1.00
13744;DHT22;6943;52.368;9.966;2022-08-01T10:21:06;25.70;1.00
13744;DHT22;6943;52.368;9.966;2022-08-01T10:23:37;26.10;1.00
13744;DHT22;6943;52.368;9.966;2022-08-01T10:26:08;26.50;1.00
13744;DHT22;6943;52.368;9.966;2022-08-01T10:28:36;26.40;1.00
13744;DHT22;6943;52.368;9.966;2022-08-01T10:31:02;26.20;1.00
13744;DHT22;6943;52.368;9.966;2022-08-01T10:33:29;25.70;1.00
13744;DHT22;6943;52.368;9.966;2022-08-01T10:35:55;25.60;1.00
13744;DHT22;6943;52.368;9.966;2022-08-01T10:38:20;25.30;1.00
13744;DHT22;6943;52.368;9.966;2022-08-01T10:40:46;24.70;1.00
13744;DHT22;6943;52.368;9.966;2022-08-01T10:43:16;24.20;1.00
13744;DHT22;6943;52.368;9.966;2022-08-01T10:45:42;24.10;1.00
13744;DHT22;6943;52.368;9.966;2022-08-01T10:50:42;24.40;1.00
13744;DHT22;6943;52.368;9.966;2022-08-01T10:53:13;25.00;1.00
13744;DHT22;6943;52.368;9.966;2022-08-01T10:58:45;25.40;1.00
13744;DHT22;6943;52.368;9.966;2022-08-01T11:03:40;25.30;1.00
13744;DHT22;6943;52.368;9.966;2022-08-01T11:06:05;25.50;1.00
13744;DHT22;6943;52.368;9.966;2022-08-01T11:08:35;25.70;1.00
13744;DHT22;6943;52.368;9.966;2022-08-01T11:11:02;25.80;1.00
13744;DHT22;6943;52.368;9.966;2022-08-01T11:16:28;25.30;1.00
13744;DHT22;6943;52.368;9.966;2022-08-01T11:18:53;24.50;1.00
13744;DHT22;6943;52.368;9.966;2022-08-01T11:21:19;23.40;1.00
13744;DHT22;6943;52.368;9.966;2022-08-01T11:23:50;23.30;1.00
13744;DHT22;6943;52.368;9.966;2022-08-01T11:26:17;23.10;1.00
13744;DHT22;6943;52.368;9.966;2022-08-01T11:28:44;23.50;1.00
13744;DHT22;6943;52.368;9.966;2022-08-01T11:38:45;23.60;1.00
13744;DHT22;6943;52.368;9.966;2022-08-01T11:44:07;24.20;1.00
13744;DHT22;6943;52.368;9.966;2022-08-01T11:47:05;23.90;1.00
13744;DHT22;6943;52.368;9.966;2022-08-01T11:52:07;24.60;1.00
13744;DHT22;6943;52.368;9.966;2022-08-01T11:54:56;25.00;1.00
13744;DHT22;6943;52.368;9.966;2022-08-01T11:57:29;25.40;1.00
13744;DHT22;6943;52.368;9.966;2022-08-01T12:00:12;25.70;1.00
13744;DHT22;6943;52.368;9.966;2022-08-01T12:02:38;25.10;1.00
13744;DHT22;6943;52.368;9.966;2022-08-01T12:05:09;25.00;1.00
13744;DHT22;6943;52.368;9.966;2022-08-01T12:07:37;24.60;1.00
13744;DHT22;6943;52.368;9.966;2022-08-01T12:10:09;24.40;1.00
13744;DHT22;6943;52.368;9.966;2022-08-01T12:12:36;24.80;1.00
13744;DHT22;6943;52.368;9.966;2022-08-01T12:15:06;25.20;1.00
13744;DHT22;6943;52.368;9.966;2022-08-01T12:17:34;25.70;1.00
13744;DHT22;6943;52.368;9.966;2022-08-01T12:20:02;25.90;1.00
13744;DHT22;6943;52.368;9.966;2022-08-01T12:22:28;25.50;1.00
13744;DHT22;6943;52.368;9.966;2022-08-01T12:24:54;25.60;1.00
13744;DHT22;6943;52.368;9.966;2022-08-01T12:27:28;25.50;1.00
13744;DHT22;6943;52.368;9.966;2022-08-01T12:29:54;25.10;1.00
13744;DHT22;6943;52.368;9.966;2022-08-01T12:34:47;25.10;1.00
13744;DHT22;6943;52.368;9.966;2022-08-01T12:37:12;24.80;1.00
13744;DHT22;6943;52.368;9.966;2022-08-01T12:39:38;25.20;1.00
13744;DHT22;6943;52.368;9.966;2022-08-01T12:42:08;25.60;1.00
13744;DHT22;6943;52.368;9.966;2022-08-01T12:44:36;25.80;1.00
13744;DHT22;6943;52.368;9.966;2022-08-01T12:47:03;26.00;1.00
13744;DHT22;6943;52.368;9.966;2022-08-01T12:49:29;26.40;1.00
13744;DHT22;6943;52.368;9.966;2022-08-01T12:51:54;25.70;1.00
13744;DHT22;6943;52.368;9.966;2022-08-01T12:54:20;26.10;1.00
13744;DHT22;6943;52.368;9.966;2022-08-01T12:56:47;26.30;1.00
13744;DHT22;6943;52.368;9.966;2022-08-01T12:59:23;26.30;1.00
13744;DHT22;6943;52.368;9.966;2022-08-01T13:01:51;26.60;1.00
13744;DHT22;6943;52.368;9.966;2022-08-01T13:04:17;26.70;1.00
13744;DHT22;6943;52.368;9.966;2022-08-01T13:06:43;26.50;1.00
13744;DHT22;6943;52.368;9.966;2022-08-01T13:09:10;26.40;1.00
13744;DHT22;6943;52.368;9.966;2022-08-01T13:11:40;26.50;1.00
13744;DHT22;6943;52.368;9.966;2022-08-01T13:14:06;26.30;1.00
13744;DHT22;6943;52.368;9.966;2022-08-01T13:16:32;26.00;1.00
13744;DHT22;6943;52.368;9.966;2022-08-01T13:18:58;26.20;1.00
13744;DHT22;6943;52.368;9.966;2022-08-01T13:21:25;26.10;1.00
13744;DHT22;6943;52.368;9.966;2022-08-01T13:24:11;26.50;1.00
13744;DHT22;6943;52.368;9.966;2022-08-01T13:29:07;26.90;1.00
13744;DHT22;6943;52.368;9.966;2022-08-01T13:31:34;27.10;1.00
13744;DHT22;6943;52.368;9.966;2022-08-01T13:34:00;27.10;1.00
13744;DHT22;6943;52.368;9.966;2022-08-01T13:36:26;27.10;1.00
13744;DHT22;6943;52.368;9.966;2022-08-01T13:38:54;27.10;1.00
13744;DHT22;6943;52.368;9.966;2022-08-01T13:41:38;27.10;1.00
13744;DHT22;6943;52.368;9.966;2022-08-01T13:44:04;27.00;1.00
13744;DHT22;6943;52.368;9.966;2022-08-01T13:46:30;26.80;1.00
13744;DHT22;6943;52.368;9.966;2022-08-01T13:48:56;26.90;1.00
13744;DHT22;6943;52.368;9.966;2022-08-01T13:51:21;26.90;1.00
13744;DHT22;6943;52.368;9.966;2022-08-01T13:53:47;26.90;1.00
13744;DHT22;6943;52.368;9.966;2022-08-01T13:56:12;26.80;1.00
13744;DHT22;6943;52.368;9.966;2022-08-01T13:58:38;26.70;1.00
13744;DHT22;6943;52.368;9.966;2022-08-01T14:01:03;26.60;1.00
13744;DHT22;6943;52.368;9.966;2022-08-01T14:03:29;26.30;1.00
13744;DHT22;6943;52.368;9.966;2022-08-01T14:05:56;26.30;1.00
13744;DHT22;6943;52.368;9.966;2022-08-01T14:08:21;26.40;1.00
13744;DHT22;6943;52.368;9.966;2022-08-01T14:10:47;26.30;1.00
13744;DHT22;6943;52.368;9.966;2022-08-01T14:13:12;26.10;1.00
13744;DHT22;6943;52.368;9.966;2022-08-01T14:15:38;26.10;1.00
13744;DHT22;6943;52.368;9.966;2022-08-01T14:18:03;26.00;1.00
13744;DHT22;6943;52.368;9.966;2022-08-01T14:20:29;26.10;1.00
13744;DHT22;6943;52.368;9.966;2022-08-01T14:22:54;26.30;1.00
13744;DHT22;6943;52.368;9.966;2022-08-01T14:25:20;26.30;1.00
13744;DHT22;6943;52.368;9.966;2022-08-01T14:27:45;26.30;1.00
13744;DHT22;6943;52.368;9.966;2022-08-01T14:30:11;26.40;1.00
13744;DHT22;6943;52.368;9.966;2022-08-01T14:32:37;26.70;1.00
13744;DHT22;6943;52.368;9.966;2022-08-01T14:35:04;26.50;1.00
13744;DHT22;6943;52.368;9.966;2022-08-01T14:37:29;26.60;1.00
13744;DHT22;6943;52.368;9.966;2022-08-01T14:39:56;26.60;1.00
13744;DHT22;6943;52.368;9.966;2022-08-01T14:42:24;26.50;1.00
13744;DHT22;6943;52.368;9.966;2022-08-01T14:44:50;26.60;1.00
13744;DHT22;6943;52.368;9.966;2022-08-01T14:47:15;26.70;1.00
13744;DHT22;6943;52.368;9.966;2022-08-01T14:49:41;26.40;1.00
13744;DHT22;6943;52.368;9.966;2022-08-01T14:52:07;26.40;1.00
13744;DHT22;6943;52.368;9.966;2022-08-01T14:54:33;26.40;1.00
13744;DHT22;6943;52.368;9.966;2022-08-01T14:56:59;26.30;1.00
13744;DHT22;6943;52.368;9.966;2022-08-01T14:59:27;26.20;1.00
13744;DHT22;6943;52.368;9.966;2022-08-01T15:01:53;25.70;1.00
13744;DHT22;6943;52.368;9.966;2022-08-01T15:04:18;25.30;1.00
13744;DHT22;6943;52.368;9.966;2022-08-01T15:06:44;25.40;1.00
13744;DHT22;6943;52.368;9.966;2022-08-01T15:09:10;25.60;1.00
13744;DHT22;6943;52.368;9.966;2022-08-01T15:11:36;25.70;1.00
13744;DHT22;6943;52.368;9.966;2022-08-01T15:14:02;25.70;1.00
13744;DHT22;6943;52.368;9.966;2022-08-01T15:16:46;25.60;1.00
13744;DHT22;6943;52.368;9.966;2022-08-01T15:19:12;25.60;1.00
13744;DHT22;6943;52.368;9.966;2022-08-01T15:21:38;25.50;1.00
13744;DHT22;6943;52.368;9.966;2022-08-01T15:24:03;25.60;1.00
13744;DHT22;6943;52.368;9.966;2022-08-01T15:26:29;25.60;1.00
13744;DHT22;6943;52.368;9.966;2022-08-01T15:28:55;25.60;1.00
13744;DHT22;6943;52.368;9.966;2022-08-01T15:31:20;25.50;1.00
13744;DHT22;6943;52.368;9.966;2022-08-01T15:33:46;25.40;1.00
13744;DHT22;6943;52.368;9.966;2022-08-01T15:36:11;25.50;1.00
13744;DHT22;6943;52.368;9.966;2022-08-01T15:38:37;25.50;1.00
13744;DHT22;6943;52.368;9.966;2022-08-01T15:41:02;25.60;1.00
13744;DHT22;6943;52.368;9.966;2022-08-01T15:43:28;25.60;1.00
13744;DHT22;6943;52.368;9.966;2022-08-01T15:45:53;25.80;1.00
13744;DHT22;6943;52.368;9.966;2022-08-01T15:48:18;25.90;1.00
13744;DHT22;6943;52.368;9.966;2022-08-01T15:50:44;25.90;1.00
13744;DHT22;6943;52.368;9.966;2022-08-01T15:53:10;25.90;1.00
13744;DHT22;6943;52.368;9.966;2022-08-01T15:55:36;25.60;1.00
13744;DHT22;6943;52.368;9.966;2022-08-01T15:58:04;25.40;1.00
13744;DHT22;6943;52.368;9.966;2022-08-01T16:00:30;25.30;1.00
13744;DHT22;6943;52.368;9.966;2022-08-01T16:02:56;25.20;1.00
13744;DHT22;6943;52.368;9.966;2022-08-01T16:05:22;25.20;1.00
13744;DHT22;6943;52.368;9.966;2022-08-01T16:07:48;25.20;1.00
13744;DHT22;6943;52.368;9.966;2022-08-01T16:10:13;25.20;1.00
13744;DHT22;6943;52.368;9.966;2022-08-01T16:12:39;25.40;1.00
13744;DHT22;6943;52.368;9.966;2022-08-01T16:15:05;25.40;1.00
13744;DHT22;6943;52.368;9.966;2022-08-01T16:17:31;25.30;1.00
13744;DHT22;6943;52.368;9.966;2022-08-01T16:19:56;24.80;1.00
13744;DHT22;6943;52.368;9.966;2022-08-01T16:22:22;24.80;1.00
13744;DHT22;6943;52.368;9.966;2022-08-01T16:24:47;24.80;1.00
13744;DHT22;6943;52.368;9.966;2022-08-01T16:27:13;24.50;1.00
13744;DHT22;6943;52.368;9.966;2022-08-01T16:29:38;24.40;1.00
13744;DHT22;6943;52.368;9.966;2022-08-01T16:32:04;24.20;1.00
13744;DHT22;6943;52.368;9.966;2022-08-01T16:34:31;24.30;1.00
13744;DHT22;6943;52.368;9.966;2022-08-01T16:36:56;24.30;1.00
13744;DHT22;6943;52.368;9.966;2022-08-01T16:39:22;24.50;1.00